createdAt,value
2023-04-02T00:01:54.779Z,19.20
2023-04-02T00:04:25.263Z,19.20
2023-04-02T00:07:30.225Z,19.20
2023-04-02T00:09:57.997Z,19.20
2023-04-02T00:12:24.844Z,19.20
2023-04-02T00:14:54.559Z,19.20
2023-04-02T00:17:24.695Z,19.20
2023-04-02T00:19:53.434Z,19.20
2023-04-02T00:22:25.655Z,19.20
2023-04-02T00:24:54.867Z,19.20
2023-04-02T00:27:22.242Z,19.20
2023-04-02T00:29:52.115Z,19.20
2023-04-02T00:32:41.388Z,19.20
2023-04-02T00:35:22.864Z,19.20
2023-04-02T00:37:50.623Z,19.20
2023-04-02T00:40:19.945Z,19.20
2023-04-02T00:42:48.889Z,19.20
2023-04-02T00:45:22.862Z,19.20
2023-04-02T00:47:49.564Z,19.20
2023-04-02T00:50:38.911Z,19.20
2023-04-02T00:53:12.816Z,19.20
2023-04-02T00:55:41.846Z,19.10
2023-04-02T00:58:32.856Z,19.10
2023-04-02T01:01:00.822Z,19.10
2023-04-02T01:03:36.347Z,19.10
2023-04-02T01:06:10.846Z,19.10
2023-04-02T01:08:57.870Z,19.10
2023-04-02T01:11:45.345Z,19.10
2023-04-02T01:14:43.739Z,19.10
2023-04-02T01:17:31.889Z,19.10
2023-04-02T01:20:17.290Z,19.10
2023-04-02T01:23:05.745Z,19.10
2023-04-02T01:26:02.213Z,19.10
2023-04-02T01:28:53.395Z,19.10
2023-04-02T01:31:21.262Z,19.10
2023-04-02T01:33:48.133Z,19.10
2023-04-02T01:36:18.355Z,19.10
2023-04-02T01:39:19.311Z,19.10
2023-04-02T01:41:58.864Z,19.10
2023-04-02T01:44:33.128Z,19.10
2023-04-02T01:47:03.833Z,19.10
2023-04-02T01:49:30.841Z,19.10
2023-04-02T01:51:57.521Z,19.10
2023-04-02T01:54:25.769Z,19.10
2023-04-02T01:56:52.649Z,19.10
2023-04-02T01:59:22.463Z,19.10
2023-04-02T02:02:02.554Z,19.10
2023-04-02T02:04:29.749Z,19.10
2023-04-02T02:06:58.651Z,19.10
2023-04-02T02:09:28.023Z,19.10
2023-04-02T02:11:56.513Z,19.00
2023-04-02T02:14:27.424Z,19.10
2023-04-02T02:16:56.669Z,19.10
2023-04-02T02:19:35.608Z,19.10
2023-04-02T02:22:33.365Z,19.10
2023-04-02T02:25:04.994Z,19.10
2023-04-02T02:27:48.168Z,19.00
2023-04-02T02:30:20.172Z,19.00
2023-04-02T02:32:55.797Z,19.00
2023-04-02T02:35:39.168Z,19.00
2023-04-02T02:38:26.856Z,19.00
2023-04-02T02:40:58.516Z,19.00
2023-04-02T02:43:27.002Z,19.00
2023-04-02T02:45:55.476Z,19.00
2023-04-02T02:48:26.165Z,19.00
2023-04-02T02:50:55.514Z,19.00
2023-04-02T02:53:23.959Z,19.00
2023-04-02T02:55:56.333Z,19.00
2023-04-02T02:58:31.282Z,19.00
2023-04-02T03:00:58.763Z,19.00
2023-04-02T03:03:29.057Z,19.00
2023-04-02T03:06:05.236Z,19.00
2023-04-02T03:08:34.099Z,19.00
2023-04-02T03:11:19.664Z,19.00
2023-04-02T03:13:50.694Z,19.00
2023-04-02T03:16:22.895Z,19.10
2023-04-02T03:18:52.577Z,19.00
2023-04-02T03:21:42.029Z,19.00
2023-04-02T03:24:29.506Z,19.00
2023-04-02T03:27:02.312Z,19.00
2023-04-02T03:29:35.317Z,19.00
2023-04-02T03:32:20.892Z,19.00
2023-04-02T03:34:59.524Z,19.00
2023-04-02T03:37:42.298Z,19.00
2023-04-02T03:40:15.791Z,19.00
2023-04-02T03:42:50.897Z,19.00
2023-04-02T03:45:28.185Z,19.00
2023-04-02T03:48:02.673Z,19.00
2023-04-02T03:50:38.364Z,19.00
2023-04-02T03:53:05.562Z,19.00
2023-04-02T03:55:42.653Z,19.00
2023-04-02T03:58:28.183Z,19.00
2023-04-02T04:01:17.400Z,19.00
2023-04-02T04:03:53.394Z,19.00
2023-04-02T04:06:30.276Z,19.00
2023-04-02T04:09:10.600Z,19.00
2023-04-02T04:11:46.431Z,19.00
2023-04-02T04:14:29.829Z,19.00
2023-04-02T04:17:09.288Z,19.00
2023-04-02T04:19:45.422Z,19.00
2023-04-02T04:22:30.377Z,19.00
2023-04-02T04:24:58.959Z,18.90
2023-04-02T04:27:44.777Z,18.90
2023-04-02T04:30:43.457Z,18.90
2023-04-02T04:33:23.094Z,19.00
2023-04-02T04:35:56.567Z,18.90
2023-04-02T04:38:39.038Z,18.90
2023-04-02T04:41:17.185Z,18.90
2023-04-02T04:43:59.734Z,18.90
2023-04-02T04:46:32.801Z,18.90
2023-04-02T04:49:10.960Z,19.00
2023-04-02T04:51:53.478Z,18.90
2023-04-02T04:54:20.355Z,18.90
2023-04-02T04:56:50.159Z,18.90
2023-04-02T04:59:39.681Z,18.90
2023-04-02T05:02:24.381Z,19.00
2023-04-02T05:04:52.865Z,18.90
2023-04-02T05:07:29.855Z,18.90
2023-04-02T05:10:20.357Z,18.90
2023-04-02T05:12:59.044Z,18.90
2023-04-02T05:15:35.915Z,18.90
2023-04-02T05:18:22.974Z,18.90
2023-04-02T05:20:58.579Z,18.90
2023-04-02T05:23:30.975Z,18.90
2023-04-02T05:26:19.078Z,18.90
2023-04-02T05:28:58.248Z,18.90
2023-04-02T05:31:43.287Z,18.90
2023-04-02T05:34:12.512Z,18.90
2023-04-02T05:36:39.854Z,18.90
2023-04-02T05:39:11.184Z,18.90
2023-04-02T05:41:45.741Z,18.90
2023-04-02T05:44:21.643Z,18.90
2023-04-02T05:46:59.138Z,18.90
2023-04-02T05:49:52.062Z,18.90
2023-04-02T05:52:32.249Z,18.90
2023-04-02T05:55:25.678Z,18.90
2023-04-02T05:58:14.175Z,18.90
2023-04-02T06:01:01.429Z,18.90
2023-04-02T06:03:57.134Z,18.90
2023-04-02T06:06:42.486Z,18.90
2023-04-02T06:09:14.683Z,18.90
2023-04-02T06:11:46.242Z,18.90
2023-04-02T06:14:15.216Z,18.90
2023-04-02T06:16:44.701Z,18.90
2023-04-02T06:19:20.049Z,18.90
2023-04-02T06:21:49.799Z,18.90
2023-04-02T06:24:21.016Z,18.90
2023-04-02T06:26:56.262Z,18.90
2023-04-02T06:29:39.781Z,18.90
2023-04-02T06:32:08.408Z,18.90
2023-04-02T06:34:38.520Z,18.90
2023-04-02T06:37:27.902Z,19.00
2023-04-02T06:39:56.190Z,19.00
2023-04-02T06:42:33.624Z,19.00
2023-04-02T06:45:00.630Z,18.90
2023-04-02T06:47:44.255Z,18.80
2023-04-02T06:50:26.859Z,19.00
2023-04-02T06:53:00.112Z,19.00
2023-04-02T06:55:55.066Z,19.00
2023-04-02T06:58:21.970Z,19.00
2023-04-02T07:00:50.022Z,19.00
2023-04-02T07:03:27.152Z,19.00
2023-04-02T07:05:54.571Z,19.00
2023-04-02T07:08:21.597Z,19.00
2023-04-02T07:10:48.329Z,19.00
2023-04-02T07:13:17.028Z,19.00
2023-04-02T07:15:46.858Z,19.00
2023-04-02T07:18:33.469Z,19.00
2023-04-02T07:21:00.212Z,19.00
2023-04-02T07:23:27.094Z,19.00
2023-04-02T07:25:55.179Z,19.10
2023-04-02T07:28:23.078Z,19.10
2023-04-02T07:30:50.856Z,19.10
2023-04-02T07:33:22.763Z,19.10
2023-04-02T07:35:51.231Z,19.10
2023-04-02T07:38:17.875Z,19.20
2023-04-02T07:40:44.453Z,19.20
2023-04-02T07:43:11.297Z,19.30
2023-04-02T07:45:38.277Z,19.30
2023-04-02T07:48:06.889Z,19.30
2023-04-02T07:50:34.026Z,19.30
2023-04-02T07:53:01.112Z,19.20
2023-04-02T07:55:27.740Z,19.30
2023-04-02T07:57:56.578Z,19.30
2023-04-02T08:00:24.814Z,19.40
2023-04-02T08:02:52.540Z,19.30
2023-04-02T08:05:19.286Z,19.30
2023-04-02T08:07:54.373Z,19.30
2023-04-02T08:10:21.333Z,19.30
2023-04-02T08:12:49.420Z,19.30
2023-04-02T08:15:16.251Z,19.30
2023-04-02T08:17:43.307Z,19.30
2023-04-02T08:20:19.288Z,19.30
2023-04-02T08:22:47.290Z,19.30
2023-04-02T08:25:14.209Z,19.30
2023-04-02T08:27:40.998Z,19.30
2023-04-02T08:30:09.052Z,19.30
2023-04-02T08:32:36.051Z,19.30
2023-04-02T08:35:02.844Z,19.30
2023-04-02T08:37:29.489Z,19.30
2023-04-02T08:39:56.127Z,19.30
2023-04-02T08:42:31.680Z,19.30
2023-04-02T08:45:38.006Z,19.30
2023-04-02T08:48:06.343Z,19.30
2023-04-02T08:50:32.965Z,19.30
2023-04-02T08:53:03.511Z,19.40
2023-04-02T08:55:47.733Z,19.50
2023-04-02T08:58:31.812Z,19.50
2023-04-02T09:01:01.875Z,19.50
2023-04-02T09:03:36.632Z,19.60
2023-04-02T09:06:04.590Z,19.50
2023-04-02T09:08:33.045Z,19.60
2023-04-02T09:10:59.702Z,19.50
2023-04-02T09:13:30.215Z,19.60
2023-04-02T09:16:10.687Z,19.50
2023-04-02T09:18:38.872Z,19.50
2023-04-02T09:21:21.145Z,19.60
2023-04-02T09:23:48.143Z,19.60
2023-04-02T09:26:23.454Z,19.60
2023-04-02T09:29:12.201Z,19.60
2023-04-02T09:31:50.925Z,19.70
2023-04-02T09:34:47.161Z,19.70
2023-04-02T09:37:22.726Z,19.70
2023-04-02T09:39:49.373Z,19.70
2023-04-02T09:42:48.331Z,19.80
2023-04-02T09:45:21.258Z,19.80
2023-04-02T09:47:49.322Z,19.70
2023-04-02T09:50:22.045Z,19.70
2023-04-02T09:52:50.058Z,19.80
2023-04-02T09:55:38.737Z,19.70
2023-04-02T09:58:16.628Z,19.70
2023-04-02T10:00:52.178Z,19.70
2023-04-02T10:03:26.602Z,19.60
2023-04-02T10:06:06.654Z,19.60
2023-04-02T10:08:33.488Z,19.60
2023-04-02T10:11:04.054Z,19.60
2023-04-02T10:13:46.163Z,19.60
2023-04-02T10:16:33.499Z,19.60
2023-04-02T10:19:13.260Z,19.50
2023-04-02T10:21:43.033Z,19.60
2023-04-02T10:24:14.843Z,19.60
2023-04-02T10:26:48.546Z,19.60
2023-04-02T10:29:43.800Z,19.60
2023-04-02T10:32:35.307Z,19.60
2023-04-02T10:35:03.826Z,19.70
2023-04-02T10:37:46.030Z,19.70
2023-04-02T10:40:36.003Z,19.70
2023-04-02T10:43:17.725Z,19.70
2023-04-02T10:45:54.334Z,19.70
2023-04-02T10:48:44.211Z,19.70
2023-04-02T10:51:34.244Z,19.80
2023-04-02T10:54:21.321Z,19.70
2023-04-02T10:56:53.044Z,19.80
2023-04-02T10:59:26.986Z,19.80
2023-04-02T11:01:57.517Z,19.80
2023-04-02T11:04:37.602Z,19.80
2023-04-02T11:07:15.035Z,19.80
2023-04-02T11:09:45.529Z,19.80
2023-04-02T11:12:20.238Z,19.80
2023-04-02T11:14:47.459Z,19.90
2023-04-02T11:17:16.414Z,19.90
2023-04-02T11:19:44.160Z,19.90
2023-04-02T11:22:22.376Z,19.90
2023-04-02T11:24:52.286Z,19.80
2023-04-02T11:27:21.910Z,19.80
2023-04-02T11:30:27.424Z,19.80
2023-04-02T11:32:55.034Z,19.80
2023-04-02T11:35:40.793Z,19.80
2023-04-02T11:38:10.337Z,19.80
2023-04-02T11:40:57.345Z,19.80
2023-04-02T11:43:32.764Z,19.70
2023-04-02T11:46:03.261Z,19.70
2023-04-02T11:48:33.718Z,19.70
2023-04-02T11:51:04.613Z,19.70
2023-04-02T11:53:34.400Z,19.70
2023-04-02T11:56:29.676Z,19.70
2023-04-02T11:59:29.990Z,19.80
2023-04-02T12:02:12.717Z,19.70
2023-04-02T12:04:45.624Z,19.70
2023-04-02T12:07:34.890Z,19.80
2023-04-02T12:10:20.280Z,19.70
2023-04-02T12:12:47.341Z,19.70
2023-04-02T12:15:34.206Z,19.70
2023-04-02T12:18:22.439Z,19.60
2023-04-02T12:20:52.328Z,19.70
2023-04-02T12:23:35.240Z,19.70
2023-04-02T12:26:06.484Z,19.70
2023-04-02T12:28:34.464Z,19.70
2023-04-02T12:31:13.827Z,19.70
2023-04-02T12:33:42.391Z,19.70
2023-04-02T12:36:13.990Z,19.70
2023-04-02T12:38:49.777Z,19.70
2023-04-02T12:41:30.006Z,19.70
2023-04-02T12:44:21.678Z,19.70
2023-04-02T12:46:49.966Z,19.60
2023-04-02T12:49:35.252Z,19.70
2023-04-02T12:52:07.465Z,19.70
2023-04-02T12:54:43.456Z,19.70
2023-04-02T12:57:22.843Z,19.60
2023-04-02T12:59:49.657Z,19.60
2023-04-02T13:02:24.880Z,19.60
2023-04-02T13:04:55.098Z,19.60
2023-04-02T13:07:25.661Z,19.60
2023-04-02T13:10:00.744Z,17.80
2023-04-02T13:12:36.016Z,19.60
2023-04-02T13:15:20.663Z,19.60
2023-04-02T13:18:01.563Z,19.60
2023-04-02T13:20:33.494Z,19.60
2023-04-02T13:23:02.615Z,19.60
2023-04-02T13:25:36.015Z,19.50
2023-04-02T13:28:02.941Z,19.60
2023-04-02T13:30:29.713Z,19.60
2023-04-02T13:32:56.518Z,19.70
2023-04-02T13:35:23.285Z,19.70
2023-04-02T13:37:49.973Z,19.70
2023-04-02T13:40:19.065Z,19.60
2023-04-02T13:42:47.523Z,19.60
2023-04-02T13:45:28.853Z,19.60
2023-04-02T13:48:00.729Z,19.70
2023-04-02T13:50:29.464Z,19.70
2023-04-02T13:52:59.035Z,19.70
2023-04-02T13:55:42.048Z,19.80
2023-04-02T13:58:10.596Z,19.70
2023-04-02T14:00:37.838Z,19.70
2023-04-02T14:03:11.751Z,19.70
2023-04-02T14:06:06.879Z,19.80
2023-04-02T14:08:54.683Z,19.80
2023-04-02T14:11:37.094Z,19.80
2023-04-02T14:14:11.166Z,19.80
2023-04-02T14:17:02.381Z,19.80
2023-04-02T14:19:54.463Z,19.80
2023-04-02T14:22:41.343Z,19.80
2023-04-02T14:25:13.664Z,19.80
2023-04-02T14:27:52.027Z,19.80
2023-04-02T14:30:31.292Z,19.80
2023-04-02T14:33:28.262Z,19.80
2023-04-02T14:36:04.357Z,19.80
2023-04-02T14:38:43.028Z,19.10
2023-04-02T14:41:18.327Z,19.80
2023-04-02T14:43:59.452Z,19.70
2023-04-02T14:46:27.616Z,19.70
2023-04-02T14:49:09.063Z,19.70
2023-04-02T14:51:40.565Z,19.70
2023-04-02T14:54:11.083Z,19.60
2023-04-02T14:56:54.361Z,19.60
2023-04-02T14:59:25.427Z,19.60
2023-04-02T15:01:58.719Z,19.60
2023-04-02T15:04:37.042Z,19.60
2023-04-02T15:07:11.481Z,19.60
2023-04-02T15:09:44.754Z,19.70
2023-04-02T15:12:25.322Z,19.70
2023-04-02T15:14:56.838Z,19.70
2023-04-02T15:17:24.640Z,19.70
2023-04-02T15:20:02.022Z,19.70
2023-04-02T15:23:01.102Z,19.80
2023-04-02T15:25:36.393Z,19.70
2023-04-02T15:28:34.254Z,19.80
2023-04-02T15:31:05.944Z,19.80
2023-04-02T15:33:38.505Z,19.70
2023-04-02T15:36:21.395Z,19.80
2023-04-02T15:38:55.607Z,19.70
2023-04-02T15:41:34.525Z,19.70
2023-04-02T15:44:15.286Z,19.80
2023-04-02T15:46:44.683Z,19.80
2023-04-02T15:49:30.395Z,19.80
2023-04-02T15:52:25.622Z,19.80
2023-04-02T15:55:10.538Z,19.80
2023-04-02T15:58:06.441Z,19.80
2023-04-02T16:00:47.689Z,19.90
2023-04-02T16:03:29.313Z,19.90
2023-04-02T16:06:00.835Z,19.90
2023-04-02T16:08:36.176Z,19.90
2023-04-02T16:11:02.771Z,19.90
2023-04-02T16:13:29.396Z,19.80
2023-04-02T16:16:02.174Z,19.80
2023-04-02T16:18:43.221Z,19.80
2023-04-02T16:21:15.776Z,19.80
2023-04-02T16:23:43.047Z,19.90
2023-04-02T16:26:34.820Z,19.80
2023-04-02T16:29:20.157Z,19.80
2023-04-02T16:32:17.903Z,19.70
2023-04-02T16:35:12.951Z,19.70
2023-04-02T16:37:59.524Z,19.60
2023-04-02T16:40:41.517Z,19.70
2023-04-02T16:43:17.141Z,19.70
2023-04-02T16:46:02.577Z,19.60
2023-04-02T16:48:49.530Z,19.60
2023-04-02T16:51:27.953Z,19.60
2023-04-02T16:54:10.564Z,19.60
2023-04-02T16:56:48.019Z,19.50
2023-04-02T16:59:38.709Z,19.50
2023-04-02T17:02:37.208Z,19.50
2023-04-02T17:05:24.847Z,19.50
2023-04-02T17:08:27.872Z,19.60
2023-04-02T17:11:05.358Z,19.50
2023-04-02T17:13:42.655Z,19.50
2023-04-02T17:16:13.102Z,19.60
2023-04-02T17:18:43.259Z,19.60
2023-04-02T17:21:14.544Z,19.60
2023-04-02T17:23:55.942Z,19.70
2023-04-02T17:26:27.419Z,19.40
2023-04-02T17:28:56.383Z,19.40
2023-04-02T17:31:27.138Z,19.40
2023-04-02T17:33:53.789Z,19.40
2023-04-02T17:36:34.780Z,19.50
2023-04-02T17:39:11.248Z,19.50
2023-04-02T17:41:46.064Z,19.50
2023-04-02T17:44:46.586Z,19.50
2023-04-02T17:47:34.910Z,19.60
2023-04-02T17:50:32.698Z,19.50
2023-04-02T17:53:13.182Z,19.60
2023-04-02T17:55:53.564Z,16.50
2023-04-02T17:58:32.104Z,19.60
2023-04-02T18:01:12.042Z,19.60
2023-04-02T18:04:04.348Z,19.60
2023-04-02T18:06:50.104Z,19.60
2023-04-02T18:09:25.822Z,19.70
2023-04-02T18:12:03.885Z,19.70
2023-04-02T18:15:03.457Z,19.70
2023-04-02T18:17:30.239Z,19.70
2023-04-02T18:20:03.422Z,19.70
2023-04-02T18:22:49.556Z,19.70
2023-04-02T18:25:35.361Z,19.70
2023-04-02T18:28:20.185Z,19.70
2023-04-02T18:30:54.884Z,19.70
2023-04-02T18:33:24.232Z,19.70
2023-04-02T18:35:51.007Z,19.70
2023-04-02T18:38:47.023Z,19.70
2023-04-02T18:41:46.001Z,19.70
2023-04-02T18:44:34.245Z,19.60
2023-04-02T18:47:27.980Z,19.60
2023-04-02T18:50:34.261Z,19.50
2023-04-02T18:53:23.931Z,19.50
2023-04-02T18:55:56.204Z,19.50
2023-04-02T18:58:31.405Z,19.50
2023-04-02T19:00:58.602Z,18.90
2023-04-02T19:03:32.426Z,19.50
2023-04-02T19:06:07.352Z,19.50
2023-04-02T19:08:48.434Z,19.50
2023-04-02T19:11:27.371Z,19.50
2023-04-02T19:13:54.739Z,19.40
2023-04-02T19:16:53.362Z,19.50
2023-04-02T19:19:21.647Z,19.50
2023-04-02T19:21:53.808Z,19.50
2023-04-02T19:24:41.302Z,19.50
2023-04-02T19:27:29.682Z,19.60
2023-04-02T19:30:17.635Z,19.60
2023-04-02T19:33:13.715Z,19.60
2023-04-02T19:35:46.617Z,19.60
2023-04-02T19:38:38.894Z,19.60
2023-04-02T19:41:34.666Z,19.60
2023-04-02T19:44:01.475Z,19.60
2023-04-02T19:46:28.661Z,19.60
2023-04-02T19:49:04.522Z,19.70
2023-04-02T19:51:31.233Z,19.60
2023-04-02T19:53:57.888Z,19.60
2023-04-02T19:56:24.581Z,19.50
2023-04-02T19:58:51.174Z,19.50
2023-04-02T20:01:18.014Z,19.50
2023-04-02T20:03:44.748Z,19.50
2023-04-02T20:06:11.930Z,19.50
2023-04-02T20:08:38.697Z,19.50
2023-04-02T20:11:06.245Z,19.40
2023-04-02T20:13:33.224Z,19.40
2023-04-02T20:16:01.326Z,19.40
2023-04-02T20:18:29.351Z,19.40
2023-04-02T20:20:55.968Z,19.40
2023-04-02T20:23:23.496Z,20.20
2023-04-02T20:25:56.267Z,19.40
2023-04-02T20:28:24.610Z,19.40
2023-04-02T20:30:51.855Z,19.40
2023-04-02T20:33:24.076Z,19.40
2023-04-02T20:35:51.767Z,19.40
2023-04-02T20:38:18.762Z,19.30
2023-04-02T20:40:51.936Z,19.40
2023-04-02T20:43:18.587Z,19.40
2023-04-02T20:45:57.881Z,19.30
2023-04-02T20:48:27.228Z,19.30
2023-04-02T20:50:54.335Z,19.30
2023-04-02T20:53:20.974Z,19.30
2023-04-02T20:55:47.571Z,19.30
2023-04-02T20:58:16.174Z,19.30
2023-04-02T21:00:43.513Z,19.30
2023-04-02T21:03:11.130Z,19.30
2023-04-02T21:05:47.908Z,19.30
2023-04-02T21:08:14.834Z,19.30
2023-04-02T21:10:41.417Z,19.30
2023-04-02T21:13:08.057Z,19.30
2023-04-02T21:15:35.009Z,19.30
2023-04-02T21:18:01.938Z,19.30
2023-04-02T21:20:28.677Z,19.30
2023-04-02T21:22:55.289Z,19.20
2023-04-02T21:25:21.929Z,19.20
2023-04-02T21:27:48.530Z,19.20
2023-04-02T21:30:15.435Z,19.20
2023-04-02T21:32:42.090Z,19.20
2023-04-02T21:35:08.993Z,19.20
2023-04-02T21:37:36.017Z,19.20
2023-04-02T21:40:02.668Z,19.20
2023-04-02T21:42:29.420Z,19.20
2023-04-02T21:44:56.050Z,19.20
2023-04-02T21:47:23.659Z,19.20
2023-04-02T21:49:50.567Z,19.20
2023-04-02T21:52:17.155Z,19.20
2023-04-02T21:54:43.752Z,19.20
2023-04-02T21:57:10.338Z,19.20
2023-04-02T21:59:36.952Z,19.20
2023-04-02T22:02:04.676Z,19.20
2023-04-02T22:04:33.165Z,19.20
2023-04-02T22:06:59.825Z,18.70
2023-04-02T22:09:26.849Z,19.20
2023-04-02T22:11:56.636Z,19.10
2023-04-02T22:14:24.146Z,19.20
2023-04-02T22:16:51.822Z,19.10
2023-04-02T22:19:18.704Z,19.10
2023-04-02T22:21:46.158Z,19.20
2023-04-02T22:24:14.762Z,19.20
2023-04-02T22:26:41.783Z,19.20
2023-04-02T22:29:08.645Z,19.20
2023-04-02T22:31:35.618Z,19.10
2023-04-02T22:34:03.838Z,19.10
2023-04-02T22:36:31.222Z,19.10
2023-04-02T22:38:58.854Z,19.10
2023-04-02T22:41:31.871Z,19.20
2023-04-02T22:44:00.770Z,19.10
2023-04-02T22:46:28.628Z,19.10
2023-04-02T22:48:55.704Z,19.10
2023-04-02T22:51:23.342Z,19.10
2023-04-02T22:53:52.515Z,19.10
2023-04-02T22:56:22.008Z,19.10
2023-04-02T22:58:49.135Z,19.10
2023-04-02T23:01:32.349Z,19.10
2023-04-02T23:03:59.082Z,19.10
2023-04-02T23:06:26.535Z,19.10
2023-04-02T23:08:53.475Z,19.10
2023-04-02T23:11:23.315Z,19.10
2023-04-02T23:13:52.253Z,19.10
2023-04-02T23:16:19.604Z,19.10
2023-04-02T23:18:48.269Z,19.00
2023-04-02T23:21:16.786Z,19.10
2023-04-02T23:23:44.331Z,19.00
2023-04-02T23:26:17.402Z,19.00
2023-04-02T23:28:44.798Z,19.00
2023-04-02T23:31:14.521Z,19.10
2023-04-02T23:33:41.468Z,19.00
2023-04-02T23:36:14.906Z,19.00
2023-04-02T23:38:41.654Z,19.00
2023-04-02T23:41:11.768Z,19.00
2023-04-02T23:43:40.356Z,19.00
2023-04-02T23:46:06.993Z,19.00
2023-04-02T23:48:33.603Z,19.00
2023-04-02T23:51:00.334Z,19.00
2023-04-02T23:53:26.989Z,19.00
2023-04-02T23:55:53.587Z,19.00
2023-04-02T23:58:20.206Z,19.00
